Time;durP1;ratioP1;P1;durP2;ratioP2;P2;SDS_P1;SDS_P2;PMS_P1;PMS_P2;Temp;Humidity;BMP_temperature;BMP_pressure;BME280_temperature;BME280_humidity;BME280_pressure;Samples;Min_cycle;Max_cycle;Signal;HPM_P1;HPM_P2
2023/07/27 00:00:57;;;;;;;0.32;0.32;;;;;;;13.35;82.09;99326.88;5094711;28;20036;-60
2023/07/27 00:03:26;;;;;;;0.60;0.60;;;;;;;13.39;82.10;99331.09;5094677;28;20044;-60
2023/07/27 00:05:55;;;;;;;0.82;0.82;;;;;;;13.41;81.57;99331.91;5094670;28;20044;-60
2023/07/27 00:08:24;;;;;;;0.40;0.40;;;;;;;13.34;82.09;99334.63;5094706;28;20074;-60
2023/07/27 00:10:52;;;;;;;0.40;0.40;;;;;;;13.28;82.02;99325.31;5094617;28;20516;-60
2023/07/27 00:13:22;;;;;;;0.73;0.73;;;;;;;13.37;81.97;99330.28;5094395;28;20046;-60
2023/07/27 00:15:51;;;;;;;24.47;1.33;;;;;;;13.35;81.45;99337.16;5094443;28;20040;-60
2023/07/27 00:18:22;;;;;;;0.32;0.32;;;;;;;13.34;81.44;99335.44;5094724;28;20498;-60
2023/07/27 00:20:51;;;;;;;2.95;1.50;;;;;;;13.26;81.25;99337.31;5094798;28;20052;-60
2023/07/27 00:23:20;;;;;;;0.50;0.50;;;;;;;13.13;81.00;99346.06;5094554;28;20051;-60
2023/07/27 00:25:49;;;;;;;0.40;0.40;;;;;;;12.95;81.14;99350.59;5094323;28;20036;-60
2023/07/27 00:28:18;;;;;;;0.57;0.57;;;;;;;12.89;81.02;99356.66;5094539;28;20283;-59
2023/07/27 00:30:54;;;;;;;1.10;0.98;;;;;;;12.84;81.18;99348.19;5094563;28;20043;-60
2023/07/27 00:33:24;;;;;;;1.38;0.75;;;;;;;12.89;81.67;99346.41;5094456;28;20048;-60
2023/07/27 00:35:57;;;;;;;2.75;0.70;;;;;;;12.86;81.49;99346.47;5094204;28;20083;-60
2023/07/27 00:38:28;;;;;;;1.98;0.70;;;;;;;12.96;81.53;99348.00;5094196;28;20122;-60
2023/07/27 00:40:57;;;;;;;0.35;0.35;;;;;;;12.94;81.64;99349.75;5093995;28;20051;-60
2023/07/27 00:43:26;;;;;;;0.50;0.50;;;;;;;12.99;81.47;99342.84;5092677;28;20045;-60
2023/07/27 00:45:56;;;;;;;0.55;0.40;;;;;;;13.02;81.68;99341.94;5094018;28;20036;-60
2023/07/27 00:48:26;;;;;;;0.50;0.50;;;;;;;13.10;81.41;99340.97;5092762;28;20054;-60
2023/07/27 00:50:56;;;;;;;1.25;1.15;;;;;;;13.04;81.48;99338.50;5092705;28;20097;-60
2023/07/27 00:53:25;;;;;;;0.60;0.60;;;;;;;13.09;81.37;99344.44;5092971;28;20119;-60
2023/07/27 00:55:55;;;;;;;0.75;0.75;;;;;;;13.12;81.47;99343.53;5093875;28;20072;-60
2023/07/27 00:58:25;;;;;;;0.47;0.47;;;;;;;13.13;80.93;99335.81;5093898;28;20128;-60
2023/07/27 01:00:54;;;;;;;0.57;0.57;;;;;;;13.22;81.02;99345.09;5093814;28;20444;-60
2023/07/27 01:03:24;;;;;;;0.77;0.77;;;;;;;13.25;80.92;99332.19;5093742;28;20033;-60
2023/07/27 01:05:55;;;;;;;0.50;0.50;;;;;;;13.21;80.58;99338.25;5093980;28;20105;-60
2023/07/27 01:08:24;;;;;;;0.50;0.50;;;;;;;13.19;80.91;99340.84;5093686;28;20070;-60
2023/07/27 01:10:58;;;;;;;0.40;0.40;;;;;;;13.28;80.71;99347.53;5093703;28;20486;-60
2023/07/27 01:13:36;;;;;;;0.40;0.40;;;;;;;13.30;80.63;99354.31;5093953;28;20051;-60
2023/07/27 01:16:12;;;;;;;0.65;0.45;;;;;;;13.30;80.72;99359.44;5093930;28;20066;-60
2023/07/27 01:18:51;;;;;;;0.75;0.40;;;;;;;13.24;80.46;99357.00;5093925;28;20052;-60
2023/07/27 01:21:29;;;;;;;0.40;0.40;;;;;;;13.20;80.69;99352.78;5094206;28;20064;-60
2023/07/27 01:24:22;;;;;;;0.50;0.50;;;;;;;13.24;80.93;99349.31;5092468;28;20040;-60
2023/07/27 01:27:15;;;;;;;0.30;0.30;;;;;;;13.20;80.46;99350.22;5093566;28;20044;-60
2023/07/27 01:30:16;;;;;;;0.40;0.40;;;;;;;13.25;80.47;99350.97;5092634;28;20165;-59
2023/07/27 01:32:52;;;;;;;0.47;0.47;;;;;;;13.20;80.53;99339.97;5066702;28;20044;-60
2023/07/27 01:35:26;;;;;;;0.50;0.50;;;;;;;13.33;81.04;99333.78;5093935;28;20052;-60
2023/07/27 01:37:57;;;;;;;0.52;0.52;;;;;;;13.41;81.08;99352.41;5094349;28;20048;-60
2023/07/27 01:40:28;;;;;;;1.10;1.05;;;;;;;13.44;80.78;99342.09;5097826;28;20437;-60
2023/07/27 01:42:58;;;;;;;0.75;0.75;;;;;;;13.48;80.40;99349.75;5097229;28;20052;-60
2023/07/27 01:45:27;;;;;;;0.43;0.43;;;;;;;13.41;80.92;99342.16;5097195;28;20040;-60
2023/07/27 01:47:59;;;;;;;0.60;0.60;;;;;;;13.38;80.80;99342.22;5097708;28;20070;-60
2023/07/27 01:50:29;;;;;;;0.73;0.73;;;;;;;13.35;80.90;99347.41;5097298;28;20596;-60
2023/07/27 01:52:59;;;;;;;0.50;0.50;;;;;;;13.40;80.89;99349.88;5097243;28;20383;-60
2023/07/27 01:55:29;;;;;;;0.50;0.50;;;;;;;13.38;80.71;99355.03;5097166;28;20055;-60
2023/07/27 01:58:01;;;;;;;1.00;0.65;;;;;;;13.31;80.80;99355.16;5096586;28;20050;-60
2023/07/27 02:00:30;;;;;;;0.98;0.98;;;;;;;13.24;80.56;99349.31;5095993;28;20127;-60
2023/07/27 02:03:01;;;;;;;0.65;0.57;;;;;;;13.23;80.97;99357.84;5095871;28;20048;-60
2023/07/27 02:05:30;;;;;;;0.50;0.50;;;;;;;13.18;80.95;99349.41;5097027;28;20509;-60
2023/07/27 02:07:59;;;;;;;0.65;0.65;;;;;;;13.19;81.39;99352.81;5097214;28;20135;-60
2023/07/27 02:10:29;;;;;;;0.40;0.40;;;;;;;12.98;81.56;99356.50;5096062;28;20040;-60
2023/07/27 02:13:04;;;;;;;0.47;0.47;;;;;;;13.01;81.71;99358.19;5097085;28;20044;-60
2023/07/27 02:15:37;;;;;;;0.50;0.50;;;;;;;12.99;81.78;99353.09;5095684;28;20402;-60
2023/07/27 02:18:15;;;;;;;1.00;0.98;;;;;;;12.90;81.63;99362.63;5096728;28;20069;-60
2023/07/27 02:20:45;;;;;;;0.50;0.50;;;;;;;12.98;81.86;99360.81;5096705;28;20048;-60
2023/07/27 02:23:16;;;;;;;0.57;0.55;;;;;;;12.98;81.78;99361.63;5096649;28;20068;-60
2023/07/27 02:25:45;;;;;;;0.40;0.40;;;;;;;12.87;81.65;99363.53;5096869;28;20128;-60
2023/07/27 02:28:14;;;;;;;0.73;0.70;;;;;;;12.77;81.84;99359.41;5095434;28;20460;-60
2023/07/27 02:30:43;;;;;;;0.50;0.50;;;;;;;12.75;81.90;99361.16;5095368;28;20130;-60
2023/07/27 02:33:13;;;;;;;0.87;0.80;;;;;;;12.79;81.93;99365.34;5095234;28;20044;-60
2023/07/27 02:35:42;;;;;;;0.50;0.50;;;;;;;12.89;82.16;99364.34;5096418;28;20036;-60
2023/07/27 02:38:14;;;;;;;0.47;0.47;;;;;;;12.96;81.97;99363.38;5096605;28;20101;-60
2023/07/27 02:40:43;;;;;;;0.75;0.75;;;;;;;12.96;81.90;99363.38;5096629;28;20048;-60
2023/07/27 02:43:12;;;;;;;1.40;1.08;;;;;;;12.97;81.73;99370.22;5096272;28;20131;-60
2023/07/27 02:45:41;;;;;;;0.30;0.30;;;;;;;12.83;81.55;99382.38;5096193;28;20560;-60
2023/07/27 02:48:10;;;;;;;0.43;0.43;;;;;;;12.83;81.71;99372.13;5096298;28;20087;-60
2023/07/27 02:50:50;;;;;;;0.63;0.63;;;;;;;12.84;82.05;99367.88;5095470;28;20429;-60
2023/07/27 02:53:20;;;;;;;0.40;0.40;;;;;;;12.74;82.07;99377.41;5095995;28;20093;-60
2023/07/27 02:56:03;;;;;;;1.90;1.55;;;;;;;12.70;81.86;99375.72;5095143;28;20121;-60
2023/07/27 02:58:41;;;;;;;0.60;0.60;;;;;;;12.69;82.20;99379.19;5096248;28;20074;-59
2023/07/27 03:01:11;;;;;;;1.10;0.98;;;;;;;12.67;82.04;99380.88;5096275;28;20482;-60
2023/07/27 03:03:40;;;;;;;1.38;1.23;;;;;;;12.74;82.23;99372.28;5094718;28;20044;-60
2023/07/27 03:06:13;;;;;;;0.30;0.30;;;;;;;12.76;82.46;99370.53;5095850;28;20075;-60
2023/07/27 03:08:49;;;;;;;0.40;0.40;;;;;;;12.73;82.33;99370.56;5094655;28;20101;-60
2023/07/27 03:11:18;;;;;;;0.57;0.57;;;;;;;12.69;82.63;99374.88;5094815;28;20389;-60
2023/07/27 03:13:47;;;;;;;0.40;0.40;;;;;;;12.64;82.78;99376.66;5095582;28;20494;-60
2023/07/27 03:16:16;;;;;;;0.97;0.80;;;;;;;12.66;82.85;99379.22;5094482;28;20082;-59
2023/07/27 03:18:45;;;;;;;0.82;0.82;;;;;;;12.58;82.77;99375.91;5094446;28;20792;-59
2023/07/27 03:21:16;;;;;;;0.40;0.40;;;;;;;12.42;82.76;99376.97;5094614;28;20040;-60
2023/07/27 03:23:48;;;;;;;0.73;0.73;;;;;;;12.35;83.18;99386.47;5095562;28;20474;-60
2023/07/27 03:26:19;;;;;;;0.70;0.70;;;;;;;12.36;83.12;99383.00;5095500;28;20040;-60
2023/07/27 03:28:48;;;;;;;1.15;0.90;;;;;;;12.31;83.10;99389.06;5095713;28;20119;-60
2023/07/27 03:31:19;;;;;;;1.08;0.70;;;;;;;12.36;83.24;99394.97;5094188;28;20123;-60
2023/07/27 03:33:49;;;;;;;1.00;0.75;;;;;;;12.47;83.25;99398.25;5095179;28;20051;-60
2023/07/27 03:36:20;;;;;;;;;;;;;;;12.36;83.05;99394.97;5095749;28;20048;-60
2023/07/27 03:38:51;;;;;;;0.20;0.20;;;;;;;12.23;83.22;99398.53;5095270;28;19924;-60
2023/07/27 03:41:20;;;;;;;0.55;0.55;;;;;;;12.31;83.42;99396.75;5095066;28;20036;-60
2023/07/27 03:43:49;;;;;;;8.70;1.23;;;;;;;12.43;83.37;99399.16;5093717;28;20048;-60
2023/07/27 03:46:18;;;;;;;0.60;0.60;;;;;;;12.37;83.31;99406.91;5095040;28;20352;-60
2023/07/27 03:48:48;;;;;;;0.65;0.65;;;;;;;12.38;83.48;99409.44;5093899;28;20066;-60
2023/07/27 03:51:19;;;;;;;2.22;1.08;;;;;;;12.53;83.49;99416.06;5094041;28;20048;-60
2023/07/27 03:53:48;;;;;;;0.50;0.50;;;;;;;12.65;83.27;99413.34;5095030;28;20090;-60
2023/07/27 03:56:32;;;;;;;1.10;0.95;;;;;;;12.66;82.92;99425.31;5094907;28;20071;-60
2023/07/27 03:59:02;;;;;;;0.40;0.40;;;;;;;12.66;82.80;99425.31;5093662;28;20044;-60
2023/07/27 04:01:32;;;;;;;0.38;0.38;;;;;;;12.73;83.00;99421.78;5094727;28;20069;-60
2023/07/27 04:04:01;;;;;;;1.30;0.87;;;;;;;12.77;82.63;99423.44;5093865;28;20498;-60
2023/07/27 04:06:32;;;;;;;0.47;0.47;;;;;;;12.83;82.77;99425.06;5093457;28;20281;-60
2023/07/27 04:09:01;;;;;;;0.55;0.55;;;;;;;12.86;82.81;99428.41;5094631;28;20079;-60
2023/07/27 04:11:33;;;;;;;0.30;0.30;;;;;;;12.82;82.67;99431.91;5094494;28;20040;-60
2023/07/27 04:14:03;;;;;;;1.10;0.90;;;;;;;12.92;82.89;99437.75;5094541;28;20044;-60
2023/07/27 04:16:32;;;;;;;2.08;1.55;;;;;;;13.03;82.87;99441.00;5095056;28;20036;-60
2023/07/27 04:19:01;;;;;;;0.60;0.60;;;;;;;13.11;82.51;99437.50;5093262;28;20063;-60
2023/07/27 04:21:32;;;;;;;0.57;0.57;;;;;;;13.10;82.40;99438.34;5094325;28;20072;-60
2023/07/27 04:24:01;;;;;;;0.60;0.60;;;;;;;12.99;82.17;99435.06;5093227;28;20048;-60
2023/07/27 04:26:30;;;;;;;0.50;0.50;;;;;;;13.01;82.51;99446.13;5093205;28;20560;-60
2023/07/27 04:29:00;;;;;;;3.35;2.40;;;;;;;13.11;82.51;99439.19;5093382;28;20382;-60
2023/07/27 04:31:28;;;;;;;0.82;0.82;;;;;;;13.21;82.25;99439.06;5094155;28;20044;-60
2023/07/27 04:33:57;;;;;;;0.80;0.80;;;;;;;13.34;82.08;99452.53;5094292;28;20040;-60
2023/07/27 04:36:26;;;;;;;0.80;0.80;;;;;;;13.43;81.70;99458.38;5094188;28;20040;-60
2023/07/27 04:38:57;;;;;;;0.57;0.57;;;;;;;13.52;81.52;99456.50;5094365;28;20502;-60
2023/07/27 04:41:26;;;;;;;19.17;1.90;;;;;;;13.60;81.41;99454.66;5094004;28;20052;-60
2023/07/27 04:43:57;;;;;;;0.70;0.60;;;;;;;13.76;81.08;99456.94;5092413;28;20062;-60
2023/07/27 04:46:26;;;;;;;0.60;0.60;;;;;;;13.82;80.69;99458.56;5092801;28;20071;-60
2023/07/27 04:48:55;;;;;;;0.50;0.50;;;;;;;13.92;80.50;99457.50;5094000;28;20090;-60
2023/07/27 04:51:24;;;;;;;0.50;0.50;;;;;;;13.89;80.21;99457.59;5094433;28;20044;-60
2023/07/27 04:53:53;;;;;;;1.00;0.93;;;;;;;13.91;80.13;99455.84;5093805;28;20047;-60
2023/07/27 04:56:24;;;;;;;0.50;0.50;;;;;;;14.02;80.13;99456.47;5092981;28;20276;-60
2023/07/27 04:58:52;;;;;;;0.28;0.28;;;;;;;14.06;79.62;99461.53;5092971;28;20372;-61
2023/07/27 05:01:21;;;;;;;0.50;0.50;;;;;;;14.13;79.12;99462.28;5094123;28;20443;-61
2023/07/27 05:03:51;;;;;;;0.70;0.70;;;;;;;14.10;79.47;99467.47;5093674;28;20036;-60
2023/07/27 05:06:19;;;;;;;;;;;;;;;14.15;79.62;99470.78;5094080;28;20055;-60
2023/07/27 05:08:48;;;;;;;0.40;0.40;;;;;;;14.20;78.89;99473.25;5093646;28;19920;-60
2023/07/27 05:11:17;;;;;;;0.40;0.40;;;;;;;14.19;78.70;99471.56;5093822;28;20359;-60
2023/07/27 05:13:47;;;;;;;0.50;0.50;;;;;;;14.31;79.08;99477.34;5093034;28;20397;-61
2023/07/27 05:16:16;;;;;;;0.45;0.45;;;;;;;14.50;79.13;99482.97;5093686;28;20055;-61
2023/07/27 05:18:45;;;;;;;0.90;0.90;;;;;;;14.61;78.44;99476.75;5093646;28;20044;-61
2023/07/27 05:21:14;;;;;;;0.63;0.63;;;;;;;14.62;78.09;99478.44;5093552;28;20303;-60
2023/07/27 05:23:43;;;;;;;0.40;0.40;;;;;;;14.54;78.08;99479.50;5093565;28;20276;-61
2023/07/27 05:26:12;;;;;;;1.45;1.10;;;;;;;14.56;77.99;99481.16;5093580;28;20044;-61
2023/07/27 05:28:41;;;;;;;0.93;0.93;;;;;;;14.57;78.23;99484.53;5094069;28;20127;-60
2023/07/27 05:31:12;;;;;;;0.45;0.45;;;;;;;14.65;78.49;99483.53;5093481;28;20040;-60
2023/07/27 05:33:41;;;;;;;0.30;0.30;;;;;;;14.74;78.71;99477.34;5093595;28;20044;-60
2023/07/27 05:36:10;;;;;;;0.37;0.37;;;;;;;14.87;78.79;99483.06;5093428;28;20044;-60
2023/07/27 05:38:39;;;;;;;3.40;1.33;;;;;;;14.88;78.16;99487.31;5094025;28;20032;-60
2023/07/27 05:41:08;;;;;;;0.50;0.50;;;;;;;14.95;77.94;99486.34;5093984;28;20036;-61
2023/07/27 05:43:37;;;;;;;0.50;0.50;;;;;;;15.06;77.56;99484.38;5093011;28;20338;-60
2023/07/27 05:46:06;;;;;;;0.40;0.40;;;;;;;15.21;77.80;99484.03;5093317;28;20047;-61
2023/07/27 05:48:36;;;;;;;0.40;0.40;;;;;;;15.28;77.06;99480.44;5092382;28;20093;-61
2023/07/27 05:51:05;;;;;;;1.17;1.08;;;;;;;15.37;76.81;99485.38;5093311;28;20055;-60
2023/07/27 05:53:34;;;;;;;0.40;0.40;;;;;;;15.46;76.70;99490.31;5093073;28;20089;-61
2023/07/27 05:56:03;;;;;;;0.73;0.67;;;;;;;15.64;76.97;99489.91;5092215;28;20517;-61
2023/07/27 05:58:31;;;;;;;0.60;0.60;;;;;;;15.80;76.67;99487.78;5093211;28;20045;-61
2023/07/27 06:01:01;;;;;;;1.10;1.00;;;;;;;15.90;76.56;99487.53;5099887;28;20137;-62
2023/07/27 06:03:30;;;;;;;0.90;0.88;;;;;;;15.97;76.29;99485.63;5092578;28;20315;-61
2023/07/27 06:06:00;;;;;;;1.13;0.63;;;;;;;16.07;75.76;99487.94;5093376;28;20127;-61
2023/07/27 06:08:30;;;;;;;0.50;0.50;;;;;;;16.20;75.18;99479.88;5093096;28;20055;-61
2023/07/27 06:11:04;;;;;;;0.57;0.57;;;;;;;16.41;74.59;99484.47;5106038;28;20047;-61
2023/07/27 06:13:34;;;;;;;0.47;0.47;;;;;;;16.60;74.00;99490.81;5113728;28;20047;-61
2023/07/27 06:16:03;;;;;;;0.50;0.50;;;;;;;16.72;73.13;99485.31;5113724;28;20036;-61
2023/07/27 06:18:33;;;;;;;0.57;0.57;;;;;;;16.77;72.47;99488.63;5113451;28;20093;-61
2023/07/27 06:21:03;;;;;;;0.50;0.50;;;;;;;16.86;71.82;99488.34;5113622;28;20046;-61
2023/07/27 06:23:32;;;;;;;0.60;0.60;;;;;;;17.01;71.36;99487.06;5112761;28;20035;-61
2023/07/27 06:26:01;;;;;;;0.52;0.52;;;;;;;17.09;70.93;99485.91;5116916;28;20040;-61
2023/07/27 06:28:29;;;;;;;0.57;0.57;;;;;;;17.09;70.28;99491.06;5115539;28;20066;-65
2023/07/27 06:30:58;;;;;;;0.60;0.60;;;;;;;17.22;69.95;99489.81;5104077;28;20036;-61
2023/07/27 06:33:27;;;;;;;0.43;0.43;;;;;;;17.29;69.46;99486.16;5097072;28;20040;-61
2023/07/27 06:35:57;;;;;;;0.50;0.50;;;;;;;17.35;69.09;99483.38;5097518;28;20043;-61
2023/07/27 06:38:27;;;;;;;1.65;1.08;;;;;;;17.47;68.37;99491.66;5113385;28;20101;-61
2023/07/27 06:40:56;;;;;;;0.85;0.75;;;;;;;17.48;67.36;99483.00;5096662;28;20402;-61
2023/07/27 06:43:25;;;;;;;0.50;0.50;;;;;;;17.48;67.32;99488.16;5095487;28;20036;-62
2023/07/27 06:45:54;;;;;;;1.23;1.08;;;;;;;17.52;67.39;99485.47;5096121;28;20056;-61
2023/07/27 06:48:23;;;;;;;0.53;0.53;;;;;;;17.62;67.20;99488.59;5096180;28;20064;-61
2023/07/27 06:50:52;;;;;;;0.45;0.45;;;;;;;17.72;66.94;99493.41;5101430;28;20063;-61
2023/07/27 06:53:21;;;;;;;0.50;0.50;;;;;;;17.71;66.49;99489.13;5116477;28;20490;-62
2023/07/27 06:55:51;;;;;;;0.50;0.50;;;;;;;17.76;66.24;99489.81;5116259;28;20050;-61
2023/07/27 06:58:20;;;;;;;0.77;0.77;;;;;;;17.93;65.98;99491.84;5116397;28;20051;-61
2023/07/27 07:00:49;;;;;;;0.47;0.47;;;;;;;18.05;65.58;99486.28;5116600;28;20035;-62
2023/07/27 07:03:18;;;;;;;0.65;0.65;;;;;;;18.11;65.15;99496.41;5116321;28;20292;-61
2023/07/27 07:05:47;;;;;;;0.40;0.40;;;;;;;18.12;65.14;99487.75;5107228;28;20517;-61
2023/07/27 07:08:16;;;;;;;0.50;0.50;;;;;;;18.21;65.20;99484.03;5076912;28;20572;-61
2023/07/27 07:10:45;;;;;;;0.53;0.53;;;;;;;18.33;64.64;99491.34;5095715;28;20040;-61
2023/07/27 07:13:15;;;;;;;1.30;0.60;;;;;;;18.46;64.40;99492.63;5095917;28;20068;-61
2023/07/27 07:15:45;;;;;;;0.47;0.47;;;;;;;18.67;63.88;99482.34;5095640;28;20075;-61
2023/07/27 07:18:13;;;;;;;;;;;;;;;18.73;63.62;99476.97;5107200;28;20071;-62
2023/07/27 07:20:42;;;;;;;0.52;0.52;;;;;;;18.82;63.62;99475.75;5115614;28;19927;-62
2023/07/27 07:23:11;;;;;;;0.60;0.60;;;;;;;18.72;63.38;99470.09;5105572;28;20123;-62
2023/07/27 07:25:40;;;;;;;0.40;0.40;;;;;;;18.79;63.46;99480.22;5102485;28;20039;-61
2023/07/27 07:28:10;;;;;;;0.70;0.70;;;;;;;18.75;63.32;99484.66;5094964;28;20042;-61
2023/07/27 07:30:41;;;;;;;0.82;0.80;;;;;;;18.68;63.50;99483.19;5094135;28;20036;-62
2023/07/27 07:33:11;;;;;;;1.58;1.48;;;;;;;18.85;63.88;99482.56;5099282;28;20040;-61
2023/07/27 07:35:39;;;;;;;0.60;0.60;;;;;;;19.02;63.64;99490.53;5103343;28;20036;-62
2023/07/27 07:38:08;;;;;;;0.70;0.70;;;;;;;19.26;63.50;99489.59;5104694;28;20048;-61
2023/07/27 07:40:37;;;;;;;0.50;0.50;;;;;;;19.41;62.87;99501.97;5098382;28;20123;-61
2023/07/27 07:43:07;;;;;;;0.40;0.40;;;;;;;19.51;62.49;99494.69;5095074;28;20084;-62
2023/07/27 07:45:36;;;;;;;0.50;0.50;;;;;;;19.52;61.76;99489.44;5095097;28;20040;-61
2023/07/27 07:48:07;;;;;;;1.20;0.75;;;;;;;19.57;61.08;99491.84;5102326;28;20028;-61
2023/07/27 07:50:37;;;;;;;0.43;0.43;;;;;;;19.63;60.49;99492.44;5100290;28;20077;-61
2023/07/27 07:53:08;;;;;;;0.50;0.50;;;;;;;19.80;60.70;99479.63;5095317;28;20068;-62
2023/07/27 07:55:46;;;;;;;0.40;0.40;;;;;;;19.97;60.54;99487.56;5111735;28;20031;-61
2023/07/27 07:58:15;;;;;;;0.73;0.73;;;;;;;20.02;60.28;99477.84;5115454;28;20043;-61
2023/07/27 08:00:44;;;;;;;0.63;0.63;;;;;;;20.08;60.38;99480.16;5115496;27;20123;-61
2023/07/27 08:03:14;;;;;;;0.83;0.80;;;;;;;20.12;60.18;99485.22;5115096;28;20043;-61
2023/07/27 08:05:43;;;;;;;0.63;0.63;;;;;;;20.15;59.54;99479.91;5115036;28;20096;-61
2023/07/27 08:08:14;;;;;;;0.60;0.60;;;;;;;20.20;60.17;99486.59;5113783;28;20545;-61
2023/07/27 08:10:43;;;;;;;0.65;0.60;;;;;;;20.22;59.86;99482.22;5110032;28;20048;-62
2023/07/27 08:13:12;;;;;;;0.50;0.50;;;;;;;20.21;59.39;99480.47;5114864;28;20044;-61
2023/07/27 08:15:41;;;;;;;0.93;0.85;;;;;;;20.29;59.00;99469.81;5109608;28;20090;-62
2023/07/27 08:18:13;;;;;;;0.70;0.70;;;;;;;20.38;58.32;99469.41;5094344;28;20044;-61
2023/07/27 08:20:42;;;;;;;0.93;0.70;;;;;;;20.57;58.24;99462.50;5094424;28;20498;-61
2023/07/27 08:23:11;;;;;;;0.52;0.52;;;;;;;20.63;57.98;99464.84;5093739;28;20485;-62
2023/07/27 08:25:40;;;;;;;0.60;0.60;;;;;;;20.65;58.07;99465.59;5106667;28;20047;-62
2023/07/27 08:28:09;;;;;;;0.63;0.63;;;;;;;20.64;57.61;99458.72;5114427;28;20490;-62
2023/07/27 08:30:38;;;;;;;0.60;0.60;;;;;;;20.54;57.38;99460.03;5114347;28;20136;-62
2023/07/27 08:33:08;;;;;;;0.50;0.50;;;;;;;20.54;56.89;99457.44;5114536;28;20048;-62
2023/07/27 08:35:38;;;;;;;0.50;0.50;;;;;;;20.76;56.97;99452.97;5114356;28;20043;-62
2023/07/27 08:38:07;;;;;;;0.57;0.57;;;;;;;20.94;56.92;99449.56;5113469;28;20443;-62
2023/07/27 08:40:36;;;;;;;0.50;0.50;;;;;;;20.83;56.14;99453.56;5114477;28;20042;-62
2023/07/27 08:43:07;;;;;;;0.55;0.55;;;;;;;20.82;55.94;99442.34;5114227;28;20055;-62
2023/07/27 08:45:37;;;;;;;0.60;0.60;;;;;;;21.11;56.31;99449.63;5114659;28;20067;-62
2023/07/27 08:48:07;;;;;;;0.60;0.60;;;;;;;21.38;56.03;99446.63;5113340;28;20039;-62
2023/07/27 08:50:38;;;;;;;0.47;0.47;;;;;;;21.38;55.09;99448.31;5112968;28;20046;-62
2023/07/27 08:53:07;;;;;;;0.57;0.57;;;;;;;21.36;54.43;99444.09;5107753;28;20393;-62
2023/07/27 08:55:36;;;;;;;0.68;0.68;;;;;;;21.57;54.28;99444.81;5103420;28;20063;-62
2023/07/27 08:58:05;;;;;;;1.95;0.75;;;;;;;21.70;53.85;99448.47;5092457;28;20041;-62
2023/07/27 09:00:34;;;;;;;0.63;0.60;;;;;;;21.94;53.50;99437.75;5092623;28;20048;-62
2023/07/27 09:03:02;;;;;;;0.52;0.52;;;;;;;22.10;53.02;99432.56;5098500;28;20040;-62
2023/07/27 09:05:40;;;;;;;0.50;0.50;;;;;;;22.23;51.71;99438.00;5121580;27;20084;-61
2023/07/27 09:08:11;;;;;;;1.75;0.75;;;;;;;22.27;50.83;99440.34;5126645;27;20050;-62
2023/07/27 09:10:41;;;;;;;0.40;0.40;;;;;;;22.36;50.75;99432.06;5114000;28;20040;-62
2023/07/27 09:13:11;;;;;;;0.65;0.57;;;;;;;22.53;51.21;99436.41;5113997;28;20047;-62
2023/07/27 09:15:44;;;;;;;0.60;0.60;;;;;;;22.48;50.79;99428.00;5114018;28;20051;-62
2023/07/27 09:18:14;;;;;;;0.50;0.50;;;;;;;22.58;50.54;99435.22;5094492;28;20043;-62
2023/07/27 09:20:44;;;;;;;0.50;0.50;;;;;;;22.55;50.93;99431.94;5093880;28;20429;-62
2023/07/27 09:23:20;;;;;;;0.40;0.40;;;;;;;22.75;50.32;99430.91;5094055;28;20051;-62
2023/07/27 09:25:55;;;;;;;0.50;0.50;;;;;;;22.86;49.50;99428.56;5093632;28;20064;-62
2023/07/27 09:28:25;;;;;;;0.77;0.77;;;;;;;22.72;49.22;99425.88;5108938;28;20040;-62
2023/07/27 09:30:59;;;;;;;0.50;0.50;;;;;;;22.86;49.45;99428.56;5112825;28;20451;-62
2023/07/27 09:33:28;;;;;;;0.50;0.50;;;;;;;23.01;49.30;99425.94;5113749;28;20108;-62
2023/07/27 09:35:58;;;;;;;0.60;0.60;;;;;;;23.07;48.91;99427.38;5113948;28;20070;-62
2023/07/27 09:38:29;;;;;;;0.57;0.57;;;;;;;23.15;48.59;99419.97;5110482;28;20503;-62
2023/07/27 09:40:58;;;;;;;0.50;0.50;;;;;;;23.35;48.21;99422.31;5113737;28;20048;-62
2023/07/27 09:43:27;;;;;;;2.17;0.93;;;;;;;23.53;47.87;99421.28;5113651;28;20537;-62
2023/07/27 09:45:58;;;;;;;0.55;0.55;;;;;;;23.61;46.40;99419.03;5111703;28;20035;-62
2023/07/27 09:48:29;;;;;;;0.47;0.47;;;;;;;23.60;46.08;99412.16;5113825;28;20039;-62
2023/07/27 09:51:00;;;;;;;0.57;0.57;;;;;;;23.84;45.35;99404.69;5113044;28;20043;-63
2023/07/27 09:53:30;;;;;;;1.88;0.60;;;;;;;23.97;45.55;99405.63;5093440;28;20044;-62
2023/07/27 09:56:00;;;;;;;0.57;0.57;;;;;;;24.23;46.28;99397.13;5093577;28;20044;-62
2023/07/27 09:58:29;;;;;;;;;;;;;;;24.29;45.91;99395.88;5094857;28;20048;-62
2023/07/27 10:00:59;;;;;;;0.57;0.52;;;;;;;24.24;45.70;99387.50;5097188;28;19999;-61
2023/07/27 10:03:28;;;;;;;0.50;0.50;;;;;;;24.24;46.44;99393.56;5095819;28;20032;-62
2023/07/27 10:05:57;;;;;;;0.50;0.50;;;;;;;24.27;44.57;99392.53;5096823;28;20044;-63
2023/07/27 10:08:27;;;;;;;;;;;;;;;24.43;43.51;99388.03;5097450;28;20043;-62
2023/07/27 10:11:00;;;;;;;0.50;0.50;;;;;;;24.54;42.67;99390.84;5096900;28;19955;-62
2023/07/27 10:13:38;;;;;;;0.50;0.50;;;;;;;24.57;42.01;99388.03;5096117;28;20494;-62
2023/07/27 10:16:11;;;;;;;0.82;0.60;;;;;;;24.37;42.06;99378.00;5096698;28;20534;-62
2023/07/27 10:18:42;;;;;;;0.40;0.40;;;;;;;24.60;42.45;99380.00;5095804;28;20555;-61
2023/07/27 10:21:28;;;;;;;0.68;0.50;;;;;;;24.70;42.13;99378.50;5096441;28;20044;-64
2023/07/27 10:24:01;;;;;;;0.85;0.70;;;;;;;24.67;41.69;99376.06;5097008;28;20044;-62
2023/07/27 10:26:46;;;;;;;0.50;0.50;;;;;;;24.71;42.21;99382.78;5096673;28;20393;-62
2023/07/27 10:29:17;;;;;;;0.52;0.52;;;;;;;24.69;41.37;99374.19;5096540;28;20076;-62
2023/07/27 10:31:47;;;;;;;0.50;0.50;;;;;;;24.68;41.48;99377.75;5102376;28;20052;-62
2023/07/27 10:34:18;;;;;;;0.45;0.45;;;;;;;24.70;41.39;99373.25;5096750;28;20066;-62
2023/07/27 10:36:57;;;;;;;0.45;0.45;;;;;;;24.74;40.95;99376.53;5105882;28;20058;-62
2023/07/27 10:39:31;;;;;;;1.00;0.50;;;;;;;24.77;41.26;99377.19;5117077;28;20047;-62
2023/07/27 10:42:03;;;;;;;14.43;9.05;;;;;;;24.77;41.10;99374.59;5096322;28;20047;-62
2023/07/27 10:44:44;;;;;;;1.35;1.15;;;;;;;25.02;42.10;99366.88;5096741;28;20051;-62
2023/07/27 10:47:16;;;;;;;0.55;0.55;;;;;;;25.18;41.02;99367.53;5096184;28;20052;-62
2023/07/27 10:49:47;;;;;;;0.60;0.60;;;;;;;25.31;40.33;99363.16;5096262;28;20098;-62
2023/07/27 10:52:18;;;;;;;0.45;0.45;;;;;;;25.27;40.34;99366.94;5114590;28;20061;-62
2023/07/27 10:54:48;;;;;;;0.40;0.40;;;;;;;25.28;39.89;99363.41;5116446;28;20093;-62
2023/07/27 10:57:20;;;;;;;0.55;0.55;;;;;;;25.15;40.05;99357.28;5116325;28;20040;-61
2023/07/27 10:59:52;;;;;;;2.47;2.05;;;;;;;25.24;40.20;99355.84;5117021;28;20039;-62
2023/07/27 11:02:23;;;;;;;3.65;2.40;;;;;;;25.25;39.22;99352.28;5111454;28;20040;-62
2023/07/27 11:04:54;;;;;;;1.75;0.63;;;;;;;25.29;39.50;99345.91;5095711;28;20048;-62
2023/07/27 11:07:27;;;;;;;0.50;0.50;;;;;;;25.34;39.37;99337.78;5095831;28;20055;-62
2023/07/27 11:09:58;;;;;;;0.63;0.63;;;;;;;25.50;39.56;99346.31;5094827;28;20044;-62
2023/07/27 11:12:27;;;;;;;0.60;0.60;;;;;;;25.66;40.06;99339.94;5095973;28;20032;-62
2023/07/27 11:15:14;;;;;;;1.05;0.85;;;;;;;25.53;39.23;99333.03;5113103;28;20400;-62
2023/07/27 11:17:43;;;;;;;0.40;0.40;;;;;;;25.55;39.51;99331.16;5116140;28;20052;-62
2023/07/27 11:20:14;;;;;;;0.43;0.43;;;;;;;25.36;39.03;99323.69;5115951;27;20048;-62
2023/07/27 11:22:44;;;;;;;0.73;0.73;;;;;;;25.43;40.04;99318.88;5114585;28;20114;-62
2023/07/27 11:25:14;;;;;;;;;;;;;;;25.52;39.87;99313.91;5114059;27;20043;-63
2023/07/27 11:27:43;;;;;;;0.50;0.50;;;;;;;25.75;40.00;99309.69;5131058;27;20277;-62
2023/07/27 11:30:17;;;;;;;0.52;0.52;;;;;;;25.85;39.53;99310.75;5096781;27;20452;-62
2023/07/27 11:32:57;;;;;;;0.73;0.73;;;;;;;25.95;38.53;99301.31;5095601;28;20075;-62
2023/07/27 11:35:27;;;;;;;0.57;0.57;;;;;;;25.75;37.67;99299.25;5109504;28;20040;-62
2023/07/27 11:37:55;;;;;;;;;;;;;;;25.37;37.79;99308.81;5106451;28;20385;-62
2023/07/27 11:40:26;;;;;;;0.50;0.50;;;;;;;25.21;38.66;99315.09;5106226;28;20006;-62
2023/07/27 11:42:55;;;;;;;0.40;0.40;;;;;;;25.21;38.72;99304.63;5094876;28;20048;-61
2023/07/27 11:45:26;;;;;;;0.50;0.50;;;;;;;25.03;39.19;99297.16;5095169;28;20052;-62
2023/07/27 11:47:56;;;;;;;0.60;0.60;;;;;;;25.10;38.75;99301.03;5095233;28;20048;-62
2023/07/27 11:50:25;;;;;;;0.50;0.50;;;;;;;25.38;39.25;99300.06;5099685;28;20035;-62